Time;durP1;ratioP1;P1;durP2;ratioP2;P2;SDS_P1;SDS_P2;PMS_P1;PMS_P2;Temp;Humidity;BMP_temperature;BMP_pressure;BME280_temperature;BME280_humidity;BME280_pressure;Samples;Min_cycle;Max_cycle;Signal;HPM_P1;HPM_P2
2021/09/30 00:01:58;;;;;;;;;0.00;0.00;;;;;;;;2775930;51;8785;-57
2021/09/30 00:04:24;;;;;;;;;2.00;1.75;;;;;;;;2775744;51;9435;-58
2021/09/30 00:06:49;;;;;;;;;3.00;0.75;;;;;;;;2775663;51;8788;-57
2021/09/30 00:09:16;;;;;;;;;1.00;1.00;;;;;;;;2775996;51;8782;-57
2021/09/30 00:11:45;;;;;;;;;1.80;1.20;;;;;;;;2775698;51;8777;-57
2021/09/30 00:33:32;;;;;;;;;1.60;1.60;;;;;;;;2775683;51;8777;-57
2021/09/30 00:39:36;;;;;;;;;1.40;1.00;;;;;;;;2775679;51;8775;-58
2021/09/30 00:52:16;;;;;;;;;2.80;1.60;;;;;;;;2775488;51;11397;-57
2021/09/30 00:55:09;;;;;;;;;1.00;1.00;;;;;;;;2775382;51;9442;-56
2021/09/30 02:58:31;;;;;;;;;2.60;1.60;;;;;;;;2774830;51;8810;-56
2021/09/30 03:01:04;;;;;;;;;2.20;2.00;;;;;;;;2775049;51;8892;-57
2021/09/30 03:03:31;;;;;;;;;2.00;2.00;;;;;;;;2775397;51;8771;-56
2021/09/30 03:05:56;;;;;;;;;3.20;2.20;;;;;;;;2774919;51;8778;-55
2021/09/30 03:08:26;;;;;;;;;1.75;1.75;;;;;;;;2774665;51;8885;-57
2021/09/30 03:10:54;;;;;;;;;3.80;2.00;;;;;;;;2774422;51;8913;-56
2021/09/30 03:13:20;;;;;;;;;2.20;1.40;;;;;;;;2774945;51;8759;-57
2021/09/30 03:16:12;;;;;;;;;2.00;1.00;;;;;;;;2774812;51;9667;-59
2021/09/30 03:23:35;;;;;;;;;3.20;2.60;;;;;;;;2774796;51;8786;-57
2021/09/30 03:26:02;;;;;;;;;3.00;2.00;;;;;;;;2774782;51;8779;-57
2021/09/30 03:28:28;;;;;;;;;2.20;1.60;;;;;;;;2774498;51;8782;-57
2021/09/30 03:30:55;;;;;;;;;1.00;1.00;;;;;;;;2774803;51;8770;-57
2021/09/30 03:33:22;;;;;;;;;0.80;0.80;;;;;;;;2774671;51;8778;-58
2021/09/30 03:35:48;;;;;;;;;2.80;2.00;;;;;;;;2774709;51;8787;-57
2021/09/30 03:38:14;;;;;;;;;1.00;1.00;;;;;;;;2774815;51;8794;-59
2021/09/30 03:40:40;;;;;;;;;3.00;3.00;;;;;;;;2774772;51;8771;-58
2021/09/30 03:43:05;;;;;;;;;1.00;1.00;;;;;;;;2774527;51;8771;-57
2021/09/30 03:45:31;;;;;;;;;2.75;1.75;;;;;;;;2774862;51;8771;-58
2021/09/30 03:47:57;;;;;;;;;2.00;2.00;;;;;;;;2774705;51;11505;-59
2021/09/30 03:50:26;;;;;;;;;1.80;1.80;;;;;;;;2774393;51;8782;-58
2021/09/30 03:53:15;;;;;;;;;3.40;2.40;;;;;;;;2774893;51;8774;-57
2021/09/30 04:00:51;;;;;;;;;1.80;1.80;;;;;;;;2775736;51;8786;-56
2021/09/30 04:03:17;;;;;;;;;2.00;2.00;;;;;;;;2775901;51;8759;-57
2021/09/30 04:05:42;;;;;;;;;2.25;2.25;;;;;;;;2775657;51;9547;-57
2021/09/30 04:08:08;;;;;;;;;2.25;1.50;;;;;;;;2775514;51;8925;-58
2021/09/30 04:10:34;;;;;;;;;2.00;2.00;;;;;;;;2775717;51;8798;-58
2021/09/30 04:12:59;;;;;;;;;1.75;1.75;;;;;;;;2776111;51;8814;-58
2021/09/30 04:15:25;;;;;;;;;3.00;1.50;;;;;;;;2775342;51;8811;-58
2021/09/30 04:17:50;;;;;;;;;1.75;1.75;;;;;;;;2775818;51;8905;-57
2021/09/30 04:20:17;;;;;;;;;1.00;1.00;;;;;;;;2775420;51;8771;-58
2021/09/30 04:22:43;;;;;;;;;1.40;1.40;;;;;;;;2775342;51;8771;-57
2021/09/30 04:25:09;;;;;;;;;3.60;2.40;;;;;;;;2775130;51;9443;-57
2021/09/30 04:27:35;;;;;;;;;3.50;3.50;;;;;;;;2775538;51;8782;-57
2021/09/30 04:30:00;;;;;;;;;2.75;2.75;;;;;;;;2775334;51;9483;-57
2021/09/30 04:32:26;;;;;;;;;1.75;1.50;;;;;;;;2775322;51;8782;-58
2021/09/30 04:34:51;;;;;;;;;1.50;1.50;;;;;;;;2775577;51;9495;-61
2021/09/30 04:37:17;;;;;;;;;1.50;1.50;;;;;;;;2775405;51;8897;-59
2021/09/30 04:39:43;;;;;;;;;2.00;2.00;;;;;;;;2775709;51;8790;-58
2021/09/30 04:42:08;;;;;;;;;2.00;2.00;;;;;;;;2775298;51;8813;-58
2021/09/30 04:44:34;;;;;;;;;1.00;1.00;;;;;;;;2775615;51;8775;-57
2021/09/30 04:46:59;;;;;;;;;1.25;1.25;;;;;;;;2775225;51;8793;-56
2021/09/30 04:49:25;;;;;;;;;1.50;1.50;;;;;;;;2774610;51;8794;-57
2021/09/30 04:51:51;;;;;;;;;1.00;0.00;;;;;;;;2775301;51;8782;-56
2021/09/30 04:54:16;;;;;;;;;3.75;2.75;;;;;;;;2775427;51;8802;-58
2021/09/30 04:56:42;;;;;;;;;2.50;2.50;;;;;;;;2775186;51;8774;-58
2021/09/30 04:59:07;;;;;;;;;4.75;3.75;;;;;;;;2775299;51;8783;-60
2021/09/30 05:01:34;;;;;;;;;2.00;2.00;;;;;;;;2775619;51;8777;-57
2021/09/30 05:03:59;;;;;;;;;4.00;2.60;;;;;;;;2775572;51;8861;-58
2021/09/30 05:06:25;;;;;;;;;1.00;1.00;;;;;;;;2775071;51;8774;-59
2021/09/30 05:08:56;;;;;;;;;2.75;1.00;;;;;;;;2774609;51;8937;-57
2021/09/30 05:11:22;;;;;;;;;3.00;3.00;;;;;;;;2775546;51;8817;-57
2021/09/30 05:13:52;;;;;;;;;2.00;2.00;;;;;;;;2775270;51;8786;-57
2021/09/30 05:16:18;;;;;;;;;2.40;2.00;;;;;;;;2775324;51;8771;-57
2021/09/30 05:18:48;;;;;;;;;1.25;1.00;;;;;;;;2775379;51;8793;-57
2021/09/30 05:21:14;;;;;;;;;5.00;3.80;;;;;;;;2775545;51;8762;-59
2021/09/30 05:23:39;;;;;;;;;2.00;2.00;;;;;;;;2775402;51;9483;-57
2021/09/30 05:26:06;;;;;;;;;3.00;3.00;;;;;;;;2775640;51;8769;-58
2021/09/30 05:28:31;;;;;;;;;1.60;1.60;;;;;;;;2774848;51;8778;-57
2021/09/30 05:30:57;;;;;;;;;2.00;2.00;;;;;;;;2773760;51;8770;-59
2021/09/30 05:33:24;;;;;;;;;2.25;1.75;;;;;;;;2773749;51;8868;-56
2021/09/30 05:35:50;;;;;;;;;0.80;0.80;;;;;;;;2773134;51;8786;-57
2021/09/30 05:38:15;;;;;;;;;1.20;1.20;;;;;;;;2773277;51;8893;-57
2021/09/30 05:40:41;;;;;;;;;1.00;1.00;;;;;;;;2773722;51;8775;-58
2021/09/30 05:43:11;;;;;;;;;1.00;0.80;;;;;;;;2773274;51;8781;-57
2021/09/30 05:45:42;;;;;;;;;1.00;1.00;;;;;;;;2773327;51;8759;-59
2021/09/30 05:48:08;;;;;;;;;1.80;0.60;;;;;;;;2773639;51;8766;-57
2021/09/30 05:50:34;;;;;;;;;1.00;1.00;;;;;;;;2773447;51;8848;-57
2021/09/30 05:52:59;;;;;;;;;0.60;0.60;;;;;;;;2773240;51;8766;-57
2021/09/30 05:55:25;;;;;;;;;2.50;0.25;;;;;;;;2773426;51;8799;-58
2021/09/30 05:57:50;;;;;;;;;1.00;1.00;;;;;;;;2773301;51;8859;-58
2021/09/30 06:00:43;;;;;;;;;1.00;1.00;;;;;;;;2773498;51;8775;-59
2021/09/30 06:14:06;;;;;;;;;1.40;1.40;;;;;;;;2773353;51;8770;-57
2021/09/30 06:16:35;;;;;;;;;0.40;0.40;;;;;;;;2773262;51;8774;-57
2021/09/30 06:19:02;;;;;;;;;0.40;0.40;;;;;;;;2773260;51;8781;-57
2021/09/30 06:21:27;;;;;;;;;0.20;0.20;;;;;;;;2773599;51;8761;-57
2021/09/30 06:23:53;;;;;;;;;0.25;0.25;;;;;;;;2773182;51;8769;-57
2021/09/30 06:26:18;;;;;;;;;1.00;1.00;;;;;;;;2775698;51;8762;-57
2021/09/30 06:28:44;;;;;;;;;1.00;1.00;;;;;;;;2779128;51;8766;-57
2021/09/30 06:31:10;;;;;;;;;1.00;1.00;;;;;;;;2778957;51;9445;-58
2021/09/30 06:33:35;;;;;;;;;2.00;2.00;;;;;;;;2779188;51;8770;-57
2021/09/30 06:36:01;;;;;;;;;4.75;1.50;;;;;;;;2778581;51;8923;-57
2021/09/30 06:38:27;;;;;;;;;1.50;1.50;;;;;;;;2779316;51;8775;-57
2021/09/30 06:40:53;;;;;;;;;1.00;0.40;;;;;;;;2779246;51;8786;-57
2021/09/30 06:43:19;;;;;;;;;2.00;2.00;;;;;;;;2779260;51;8793;-60
2021/09/30 06:45:44;;;;;;;;;1.75;1.75;;;;;;;;2779274;51;8782;-57
2021/09/30 06:48:10;;;;;;;;;3.75;2.75;;;;;;;;2779076;51;8783;-57
2021/09/30 06:50:36;;;;;;;;;2.50;2.50;;;;;;;;2779044;51;8819;-57
2021/09/30 06:53:04;;;;;;;;;1.00;1.00;;;;;;;;2779099;51;8799;-58
2021/09/30 06:55:30;;;;;;;;;1.40;0.40;;;;;;;;2779037;51;8771;-57
2021/09/30 06:57:56;;;;;;;;;0.60;0.60;;;;;;;;2779180;51;8766;-58
2021/09/30 07:00:22;;;;;;;;;1.00;1.00;;;;;;;;2779007;51;8811;-58
2021/09/30 07:02:47;;;;;;;;;3.00;1.40;;;;;;;;2779445;51;8785;-58
2021/09/30 07:05:15;;;;;;;;;2.75;1.50;;;;;;;;2779004;51;8886;-57
2021/09/30 07:07:41;;;;;;;;;0.80;0.80;;;;;;;;2778976;51;8780;-58
2021/09/30 07:10:09;;;;;;;;;1.00;1.00;;;;;;;;2778828;51;8798;-58
2021/09/30 07:12:35;;;;;;;;;1.00;1.00;;;;;;;;2778673;51;8795;-57
2021/09/30 07:15:01;;;;;;;;;1.20;1.20;;;;;;;;2779193;51;8883;-58
2021/09/30 07:17:28;;;;;;;;;2.25;2.25;;;;;;;;2779061;51;8778;-58
2021/09/30 07:19:54;;;;;;;;;2.00;2.00;;;;;;;;2773228;51;8781;-57
2021/09/30 07:22:20;;;;;;;;;0.40;0.40;;;;;;;;2773222;51;8757;-58
2021/09/30 07:24:45;;;;;;;;;1.75;1.00;;;;;;;;2772874;51;8765;-56
2021/09/30 07:27:11;;;;;;;;;1.75;1.75;;;;;;;;2777354;51;8770;-57
2021/09/30 07:29:37;;;;;;;;;2.25;1.00;;;;;;;;2779209;51;8779;-56
2021/09/30 07:32:03;;;;;;;;;2.00;2.00;;;;;;;;2779853;51;8762;-56
2021/09/30 07:34:29;;;;;;;;;2.00;2.00;;;;;;;;2779901;51;8782;-58
2021/09/30 07:36:56;;;;;;;;;3.00;2.00;;;;;;;;2779573;51;8877;-57
2021/09/30 07:39:22;;;;;;;;;0.80;0.80;;;;;;;;2779686;51;8786;-57
2021/09/30 07:41:49;;;;;;;;;1.80;1.00;;;;;;;;2779555;51;8798;-56
2021/09/30 07:44:15;;;;;;;;;1.40;1.40;;;;;;;;2779504;51;8893;-56
2021/09/30 07:46:42;;;;;;;;;2.60;1.60;;;;;;;;2780103;51;8799;-57
2021/09/30 07:49:07;;;;;;;;;1.60;1.60;;;;;;;;2779573;51;9475;-59
2021/09/30 07:51:34;;;;;;;;;4.00;2.75;;;;;;;;2779525;51;8762;-56
2021/09/30 07:54:00;;;;;;;;;1.00;1.00;;;;;;;;2780089;51;11394;-57
2021/09/30 07:56:28;;;;;;;;;1.00;1.00;;;;;;;;2779642;51;8762;-59
2021/09/30 07:58:54;;;;;;;;;1.80;1.00;;;;;;;;2779965;51;8767;-57
2021/09/30 08:01:20;;;;;;;;;1.40;1.40;;;;;;;;2779756;51;8806;-57
2021/09/30 08:03:46;;;;;;;;;2.00;0.40;;;;;;;;2779439;51;8781;-58
2021/09/30 08:06:12;;;;;;;;;0.75;0.75;;;;;;;;2779505;51;8878;-57
2021/09/30 08:08:37;;;;;;;;;1.40;0.60;;;;;;;;2779388;51;11426;-57
2021/09/30 08:11:03;;;;;;;;;2.50;1.00;;;;;;;;2779464;51;8790;-58
2021/09/30 08:13:31;;;;;;;;;0.00;0.00;;;;;;;;2779467;51;8886;-58
2021/09/30 08:15:57;;;;;;;;;1.60;1.60;;;;;;;;2779552;51;8801;-57
2021/09/30 08:18:23;;;;;;;;;0.75;0.75;;;;;;;;2777634;51;8868;-57
2021/09/30 08:20:48;;;;;;;;;1.00;1.00;;;;;;;;2773506;51;11240;-57
2021/09/30 08:23:15;;;;;;;;;2.00;2.00;;;;;;;;2773660;51;9695;-57
2021/09/30 08:25:41;;;;;;;;;0.00;0.00;;;;;;;;2774702;51;8782;-57
2021/09/30 08:28:07;;;;;;;;;0.20;0.20;;;;;;;;2779353;51;8770;-57
2021/09/30 08:30:33;;;;;;;;;0.00;0.00;;;;;;;;2779190;51;8877;-59
2021/09/30 08:32:58;;;;;;;;;1.00;0.00;;;;;;;;2779733;51;8783;-58
2021/09/30 08:35:24;;;;;;;;;0.00;0.00;;;;;;;;2779393;51;8778;-57
2021/09/30 08:37:49;;;;;;;;;0.00;0.00;;;;;;;;2779277;51;8792;-58
2021/09/30 08:40:15;;;;;;;;;0.00;0.00;;;;;;;;2779684;51;8785;-58
2021/09/30 08:42:44;;;;;;;;;0.00;0.00;;;;;;;;2779799;51;8783;-57
2021/09/30 08:45:10;;;;;;;;;0.00;0.00;;;;;;;;2778824;51;11350;-58
2021/09/30 08:47:36;;;;;;;;;0.67;0.67;;;;;;;;2779235;51;9530;-57
2021/09/30 08:50:03;;;;;;;;;0.00;0.00;;;;;;;;2779241;51;8794;-59
2021/09/30 08:52:29;;;;;;;;;0.00;0.00;;;;;;;;2779293;51;8869;-58
2021/09/30 08:54:55;;;;;;;;;0.25;0.25;;;;;;;;2779585;51;8888;-57
2021/09/30 08:57:21;;;;;;;;;2.00;1.00;;;;;;;;2779424;51;8766;-58
2021/09/30 09:00:00;;;;;;;;;0.00;0.00;;;;;;;;2779701;51;8762;-57
2021/09/30 09:02:26;;;;;;;;;0.00;0.00;;;;;;;;2779332;51;9447;-57
2021/09/30 09:04:56;;;;;;;;;0.00;0.00;;;;;;;;2779502;51;8782;-58
2021/09/30 09:07:29;;;;;;;;;0.50;0.50;;;;;;;;2779365;51;8771;-59
2021/09/30 09:09:56;;;;;;;;;0.20;0.00;;;;;;;;2779212;51;8782;-58
2021/09/30 09:12:23;;;;;;;;;0.00;0.00;;;;;;;;2779445;51;8774;-57
2021/09/30 09:14:49;;;;;;;;;0.00;0.00;;;;;;;;2779378;51;8775;-56
2021/09/30 09:17:16;;;;;;;;;0.00;0.00;;;;;;;;2779545;51;8746;-57
2021/09/30 09:19:47;;;;;;;;;0.00;0.00;;;;;;;;2774587;51;8781;-62
2021/09/30 09:22:14;;;;;;;;;1.25;0.25;;;;;;;;2773181;51;8765;-60
2021/09/30 09:24:53;;;;;;;;;0.00;0.00;;;;;;;;2773486;51;8761;-57
2021/09/30 09:27:19;;;;;;;;;0.00;0.00;;;;;;;;2778214;51;8750;-57
2021/09/30 09:29:45;;;;;;;;;0.75;0.00;;;;;;;;2779176;51;8790;-56
2021/09/30 09:32:10;;;;;;;;;0.00;0.00;;;;;;;;2779114;51;8782;-59
2021/09/30 09:34:37;;;;;;;;;0.33;0.00;;;;;;;;2778776;51;8894;-57
2021/09/30 09:37:38;;;;;;;;;0.50;0.50;;;;;;;;2779264;51;8770;-57
2021/09/30 09:40:17;;;;;;;;;0.00;0.00;;;;;;;;2775609;51;8912;-57
2021/09/30 09:42:43;;;;;;;;;0.00;0.00;;;;;;;;2778657;51;8774;-58
2021/09/30 09:45:16;;;;;;;;;0.00;0.00;;;;;;;;2779027;51;8799;-58
2021/09/30 09:47:44;;;;;;;;;0.00;0.00;;;;;;;;2779540;51;9304;-60
2021/09/30 09:50:10;;;;;;;;;0.00;0.00;;;;;;;;2778981;51;8771;-56
2021/09/30 09:52:42;;;;;;;;;0.00;0.00;;;;;;;;2779070;51;8872;-58
2021/09/30 09:55:09;;;;;;;;;0.00;0.00;;;;;;;;2778645;51;8928;-58
2021/09/30 09:57:34;;;;;;;;;0.00;0.00;;;;;;;;2779094;51;8787;-58
2021/09/30 10:00:09;;;;;;;;;0.00;0.00;;;;;;;;2779315;51;8783;-58
2021/09/30 10:02:35;;;;;;;;;0.00;0.00;;;;;;;;2779309;51;8755;-58
2021/09/30 10:05:01;;;;;;;;;0.00;0.00;;;;;;;;2779324;51;8781;-58
2021/09/30 10:07:26;;;;;;;;;0.00;0.00;;;;;;;;2779179;51;8766;-58
2021/09/30 10:09:52;;;;;;;;;0.00;0.00;;;;;;;;2779165;51;8786;-58
2021/09/30 10:12:18;;;;;;;;;1.75;1.25;;;;;;;;2779119;51;8759;-57
2021/09/30 10:14:43;;;;;;;;;0.00;0.00;;;;;;;;2779097;51;8789;-57
2021/09/30 10:17:09;;;;;;;;;0.00;0.00;;;;;;;;2779249;51;8799;-61
2021/09/30 10:19:35;;;;;;;;;0.00;0.00;;;;;;;;2773707;51;8814;-58
2021/09/30 10:22:00;;;;;;;;;1.00;0.00;;;;;;;;2773144;51;8777;-58
2021/09/30 10:24:27;;;;;;;;;1.75;0.25;;;;;;;;2773048;51;8769;-59
2021/09/30 10:26:57;;;;;;;;;0.00;0.00;;;;;;;;2776796;51;8783;-57
2021/09/30 10:29:39;;;;;;;;;0.00;0.00;;;;;;;;2779319;51;8766;-57
2021/09/30 10:32:06;;;;;;;;;0.00;0.00;;;;;;;;2778957;51;8770;-57
2021/09/30 10:34:33;;;;;;;;;0.00;0.00;;;;;;;;2778909;51;8790;-57
2021/09/30 10:37:18;;;;;;;;;0.00;0.00;;;;;;;;2779375;51;8855;-58
2021/09/30 10:39:47;;;;;;;;;0.00;0.00;;;;;;;;2778972;51;8763;-57
2021/09/30 10:42:32;;;;;;;;;0.00;0.00;;;;;;;;2776068;51;8857;-59
2021/09/30 10:45:11;;;;;;;;;0.40;0.40;;;;;;;;2774953;51;8781;-58
2021/09/30 10:47:37;;;;;;;;;0.80;0.20;;;;;;;;2774797;51;8880;-56
2021/09/30 10:50:03;;;;;;;;;1.00;1.00;;;;;;;;2774748;51;8817;-57
2021/09/30 10:52:48;;;;;;;;;1.00;1.00;;;;;;;;2774998;51;8932;-59
2021/09/30 10:55:14;;;;;;;;;2.00;1.00;;;;;;;;2774567;51;8813;-59
2021/09/30 10:57:39;;;;;;;;;0.20;0.20;;;;;;;;2775168;51;8758;-58
2021/09/30 11:00:28;;;;;;;;;0.00;0.00;;;;;;;;2774983;51;8770;-57
2021/09/30 11:03:00;;;;;;;;;0.00;0.00;;;;;;;;2774209;51;8916;-57
2021/09/30 11:05:26;;;;;;;;;0.00;0.00;;;;;;;;2775173;51;8767;-58
2021/09/30 11:08:10;;;;;;;;;0.80;0.80;;;;;;;;2775809;51;8871;-60
2021/09/30 11:10:36;;;;;;;;;1.00;0.00;;;;;;;;2775596;51;8775;-60
2021/09/30 11:13:17;;;;;;;;;0.00;0.00;;;;;;;;2775704;51;8792;-58
2021/09/30 11:16:07;;;;;;;;;0.60;0.00;;;;;;;;2775653;51;8797;-60
2021/09/30 11:18:47;;;;;;;;;0.20;0.00;;;;;;;;2774775;51;8810;-58
2021/09/30 11:23:56;;;;;;;;;0.00;0.00;;;;;;;;2775610;51;8777;-58
2021/09/30 11:26:22;;;;;;;;;0.50;0.00;;;;;;;;2775863;51;8781;-58
2021/09/30 11:28:48;;;;;;;;;0.00;0.00;;;;;;;;2775926;51;8992;-58
2021/09/30 11:31:23;;;;;;;;;0.00;0.00;;;;;;;;2775804;51;9501;-59
2021/09/30 11:33:50;;;;;;;;;0.20;0.20;;;;;;;;2775167;51;8794;-59
2021/09/30 11:36:16;;;;;;;;;0.60;0.60;;;;;;;;2775268;51;8810;-58
2021/09/30 11:38:41;;;;;;;;;1.00;1.00;;;;;;;;2775610;51;9500;-61
2021/09/30 11:41:07;;;;;;;;;2.00;1.75;;;;;;;;2775830;51;8774;-57
2021/09/30 11:43:33;;;;;;;;;2.00;1.00;;;;;;;;2775608;51;8781;-57
2021/09/30 11:46:19;;;;;;;;;0.20;0.20;;;;;;;;2775522;51;8890;-58
2021/09/30 11:48:57;;;;;;;;;3.60;1.80;;;;;;;;2775751;51;9483;-58
2021/09/30 11:51:33;;;;;;;;;0.00;0.00;;;;;;;;2775743;51;8774;-60
2021/09/30 11:53:59;;;;;;;;;0.40;0.40;;;;;;;;2775378;51;8796;-60
2021/09/30 11:56:25;;;;;;;;;0.80;0.80;;;;;;;;2775647;51;8825;-58
2021/09/30 11:59:05;;;;;;;;;1.00;1.00;;;;;;;;2775385;51;8802;-59
2021/09/30 12:01:35;;;;;;;;;0.00;0.00;;;;;;;;2775447;51;8927;-58
2021/09/30 12:04:01;;;;;;;;;1.00;1.00;;;;;;;;2775533;51;8787;-59
2021/09/30 12:06:46;;;;;;;;;0.00;0.00;;;;;;;;2775503;51;9472;-57
2021/09/30 12:09:14;;;;;;;;;0.80;0.80;;;;;;;;2775634;51;8778;-58
2021/09/30 12:11:47;;;;;;;;;0.20;0.20;;;;;;;;2775340;51;8903;-60
2021/09/30 12:14:15;;;;;;;;;0.00;0.00;;;;;;;;2775565;51;8837;-59
2021/09/30 12:16:52;;;;;;;;;0.00;0.00;;;;;;;;2775462;51;8769;-59
2021/09/30 12:19:28;;;;;;;;;0.00;0.00;;;;;;;;2775727;51;8781;-58
2021/09/30 12:21:53;;;;;;;;;1.00;1.00;;;;;;;;2775381;51;8788;-58
2021/09/30 12:24:19;;;;;;;;;1.00;0.50;;;;;;;;2775357;51;8757;-58
2021/09/30 12:26:44;;;;;;;;;0.00;0.00;;;;;;;;2775356;51;8803;-59
2021/09/30 12:29:10;;;;;;;;;1.00;0.00;;;;;;;;2775831;51;8776;-57
2021/09/30 12:31:35;;;;;;;;;0.25;0.00;;;;;;;;2775381;51;8789;-58
2021/09/30 12:34:20;;;;;;;;;2.00;1.00;;;;;;;;2775278;51;8781;-58
2021/09/30 12:36:45;;;;;;;;;0.40;0.40;;;;;;;;2775273;51;8792;-59
2021/09/30 12:39:11;;;;;;;;;1.50;0.00;;;;;;;;2775271;51;8967;-58
2021/09/30 12:41:37;;;;;;;;;0.00;0.00;;;;;;;;2774867;51;9950;-58
2021/09/30 12:44:09;;;;;;;;;1.25;1.25;;;;;;;;2775292;51;8932;-58
2021/09/30 12:46:45;;;;;;;;;1.00;1.00;;;;;;;;2775576;51;8802;-58
2021/09/30 12:49:11;;;;;;;;;1.20;1.00;;;;;;;;2775546;51;8809;-58
2021/09/30 12:51:37;;;;;;;;;0.20;0.00;;;;;;;;2775071;51;8790;-57
2021/09/30 12:54:03;;;;;;;;;0.00;0.00;;;;;;;;2775278;51;8800;-56
2021/09/30 12:56:31;;;;;;;;;1.00;1.00;;;;;;;;2775415;51;8782;-57
2021/09/30 12:59:08;;;;;;;;;2.80;1.00;;;;;;;;2775007;51;8785;-58
2021/09/30 13:01:37;;;;;;;;;0.20;0.20;;;;;;;;2775165;51;8778;-62
2021/09/30 13:04:14;;;;;;;;;0.80;0.80;;;;;;;;2775113;51;8790;-59
2021/09/30 13:06:41;;;;;;;;;1.00;1.00;;;;;;;;2775537;51;9414;-63
2021/09/30 13:09:18;;;;;;;;;0.00;0.00;;;;;;;;2775052;51;8790;-57
2021/09/30 13:11:48;;;;;;;;;2.00;1.00;;;;;;;;2774940;51;8813;-59
2021/09/30 13:14:19;;;;;;;;;0.40;0.40;;;;;;;;2774952;51;8807;-58
2021/09/30 13:16:56;;;;;;;;;0.60;0.60;;;;;;;;2775115;51;8786;-57
2021/09/30 13:19:41;;;;;;;;;0.00;0.00;;;;;;;;2774836;51;8793;-58
2021/09/30 13:22:06;;;;;;;;;0.40;0.40;;;;;;;;2775128;51;8797;-59
2021/09/30 13:24:34;;;;;;;;;0.60;0.60;;;;;;;;2774833;51;8772;-57
2021/09/30 13:26:59;;;;;;;;;1.80;1.80;;;;;;;;2774653;51;8777;-59
2021/09/30 13:29:25;;;;;;;;;1.00;1.00;;;;;;;;2774702;51;8793;-58
2021/09/30 13:31:51;;;;;;;;;0.00;0.00;;;;;;;;2775239;51;8772;-59
2021/09/30 13:34:18;;;;;;;;;1.00;1.00;;;;;;;;2775049;51;8785;-60
2021/09/30 13:36:43;;;;;;;;;1.00;1.00;;;;;;;;2774908;51;8830;-58
2021/09/30 13:39:09;;;;;;;;;1.00;1.00;;;;;;;;2774802;51;8787;-58
2021/09/30 13:41:35;;;;;;;;;1.00;1.00;;;;;;;;2775030;51;8791;-59
2021/09/30 13:44:00;;;;;;;;;2.00;1.00;;;;;;;;2775061;51;8863;-57
2021/09/30 13:46:26;;;;;;;;;2.00;2.00;;;;;;;;2774955;51;8781;-57
2021/09/30 13:48:52;;;;;;;;;2.75;1.00;;;;;;;;2775159;51;8940;-58
2021/09/30 13:51:17;;;;;;;;;1.00;1.00;;;;;;;;2775081;51;8789;-58
2021/09/30 13:53:43;;;;;;;;;0.00;0.00;;;;;;;;2774875;51;8803;-59
2021/09/30 13:56:08;;;;;;;;;0.25;0.25;;;;;;;;2774955;51;8777;-59
2021/09/30 13:58:35;;;;;;;;;0.00;0.00;;;;;;;;2774855;51;8796;-59
2021/09/30 14:01:01;;;;;;;;;0.00;0.00;;;;;;;;2774976;51;8781;-58
2021/09/30 14:03:26;;;;;;;;;0.00;0.00;;;;;;;;2775173;51;8774;-59
2021/09/30 14:05:52;;;;;;;;;0.00;0.00;;;;;;;;2774889;51;8870;-58
2021/09/30 14:08:19;;;;;;;;;0.50;0.00;;;;;;;;2774948;51;8783;-58
2021/09/30 14:10:47;;;;;;;;;0.00;0.00;;;;;;;;2774685;51;8805;-57
2021/09/30 14:13:16;;;;;;;;;0.00;0.00;;;;;;;;2774052;51;8782;-57
2021/09/30 14:15:45;;;;;;;;;0.00;0.00;;;;;;;;2774710;51;8770;-58
2021/09/30 14:18:11;;;;;;;;;0.00;0.00;;;;;;;;2774658;51;8778;-59
2021/09/30 14:20:36;;;;;;;;;0.75;0.75;;;;;;;;2774740;51;8785;-59
2021/09/30 14:23:02;;;;;;;;;0.25;0.00;;;;;;;;2774762;51;8875;-58
2021/09/30 14:25:28;;;;;;;;;0.00;0.00;;;;;;;;2774643;51;11414;-58
2021/09/30 14:27:53;;;;;;;;;0.00;0.00;;;;;;;;2774852;51;8785;-59
2021/09/30 14:30:19;;;;;;;;;1.00;1.00;;;;;;;;2774817;51;8790;-61
2021/09/30 14:32:45;;;;;;;;;2.25;1.50;;;;;;;;2774741;51;8789;-57
2021/09/30 14:35:10;;;;;;;;;0.00;0.00;;;;;;;;2774850;51;10110;-59
2021/09/30 14:37:36;;;;;;;;;1.25;0.25;;;;;;;;2774512;51;8882;-64
2021/09/30 14:40:02;;;;;;;;;0.00;0.00;;;;;;;;2774655;51;8899;-57
2021/09/30 14:42:28;;;;;;;;;1.00;1.00;;;;;;;;2774737;51;8921;-57
2021/09/30 14:44:57;;;;;;;;;2.25;0.50;;;;;;;;2774636;51;8769;-58
2021/09/30 14:47:22;;;;;;;;;1.60;1.60;;;;;;;;2774669;51;8801;-58
2021/09/30 14:49:48;;;;;;;;;0.50;0.50;;;;;;;;2774698;51;8781;-58
2021/09/30 14:52:14;;;;;;;;;0.75;0.75;;;;;;;;2774527;51;8786;-58
2021/09/30 14:54:40;;;;;;;;;0.75;0.75;;;;;;;;2774133;51;8894;-57
2021/09/30 14:57:06;;;;;;;;;1.00;1.00;;;;;;;;2774908;51;8750;-60
2021/09/30 14:59:31;;;;;;;;;0.00;0.00;;;;;;;;2774399;51;8777;-59
2021/09/30 15:01:57;;;;;;;;;3.00;1.00;;;;;;;;2774268;51;8908;-60
2021/09/30 15:04:23;;;;;;;;;2.00;1.00;;;;;;;;2774542;51;8932;-57
2021/09/30 15:06:49;;;;;;;;;0.50;0.50;;;;;;;;2774811;51;8769;-57
2021/09/30 15:09:14;;;;;;;;;1.00;1.00;;;;;;;;2774509;51;11462;-60
2021/09/30 15:11:40;;;;;;;;;1.00;1.00;;;;;;;;2774382;51;8792;-59
2021/09/30 15:14:06;;;;;;;;;1.50;1.00;;;;;;;;2774331;51;8895;-59
2021/09/30 15:16:34;;;;;;;;;2.00;0.40;;;;;;;;2774574;51;8807;-61
2021/09/30 15:19:05;;;;;;;;;0.60;0.60;;;;;;;;2774415;51;8781;-61
2021/09/30 15:21:31;;;;;;;;;0.20;0.20;;;;;;;;2774823;51;8774;-57
2021/09/30 15:24:04;;;;;;;;;0.00;0.00;;;;;;;;2774330;51;8836;-57
2021/09/30 15:26:30;;;;;;;;;0.20;0.00;;;;;;;;2774417;51;8773;-61
2021/09/30 15:28:57;;;;;;;;;1.40;1.40;;;;;;;;2774325;51;8786;-56
2021/09/30 15:31:23;;;;;;;;;0.00;0.00;;;;;;;;2774530;51;8835;-58
2021/09/30 15:33:50;;;;;;;;;2.60;1.40;;;;;;;;2774140;51;8785;-59
2021/09/30 15:36:16;;;;;;;;;1.60;1.60;;;;;;;;2774350;51;8796;-59
2021/09/30 15:38:41;;;;;;;;;1.00;0.40;;;;;;;;2774351;51;8767;-60
2021/09/30 15:41:08;;;;;;;;;2.00;2.00;;;;;;;;2774171;51;8785;-60
2021/09/30 15:43:34;;;;;;;;;0.00;0.00;;;;;;;;2774007;51;9439;-60
2021/09/30 15:46:00;;;;;;;;;2.00;1.00;;;;;;;;2774989;51;8785;-59
2021/09/30 15:48:26;;;;;;;;;2.00;1.00;;;;;;;;2773301;51;8868;-57
2021/09/30 15:50:52;;;;;;;;;1.00;1.00;;;;;;;;2773749;51;8779;-58
2021/09/30 15:53:18;;;;;;;;;1.00;0.50;;;;;;;;2774846;51;8805;-57
2021/09/30 15:55:43;;;;;;;;;0.00;0.00;;;;;;;;2774891;51;8907;-59
2021/09/30 15:58:09;;;;;;;;;1.75;1.25;;;;;;;;2775256;51;8944;-58
2021/09/30 16:00:34;;;;;;;;;1.00;1.00;;;;;;;;2774919;51;8771;-58
2021/09/30 16:03:00;;;;;;;;;1.00;1.00;;;;;;;;2775300;51;8777;-58
2021/09/30 16:05:26;;;;;;;;;1.50;1.50;;;;;;;;2775330;51;8762;-59
2021/09/30 16:07:51;;;;;;;;;1.00;1.00;;;;;;;;2775247;51;9530;-57
2021/09/30 16:10:17;;;;;;;;;1.75;1.75;;;;;;;;2775152;51;9478;-57
2021/09/30 16:12:43;;;;;;;;;5.75;1.00;;;;;;;;2775248;51;8785;-58
2021/09/30 16:15:09;;;;;;;;;0.80;0.80;;;;;;;;2775368;51;8787;-56
2021/09/30 16:17:36;;;;;;;;;1.00;0.00;;;;;;;;2775276;51;9403;-57
2021/09/30 16:20:02;;;;;;;;;1.00;1.00;;;;;;;;2769097;51;9980;-59
2021/09/30 16:22:28;;;;;;;;;3.00;0.60;;;;;;;;2769157;51;8801;-60
2021/09/30 16:24:54;;;;;;;;;3.50;1.75;;;;;;;;2769769;51;8787;-60
2021/09/30 16:27:21;;;;;;;;;1.00;1.00;;;;;;;;2773023;51;8782;-60
2021/09/30 16:29:47;;;;;;;;;0.60;0.60;;;;;;;;2772746;51;8794;-60
2021/09/30 16:32:12;;;;;;;;;0.75;0.75;;;;;;;;2773339;51;8786;-59
2021/09/30 16:34:38;;;;;;;;;0.00;0.00;;;;;;;;2773744;51;8767;-57
2021/09/30 16:37:05;;;;;;;;;1.00;1.00;;;;;;;;2773490;51;8763;-59
2021/09/30 16:39:31;;;;;;;;;1.00;0.00;;;;;;;;2773307;51;8859;-59
2021/09/30 16:41:56;;;;;;;;;1.00;1.00;;;;;;;;2773688;51;8754;-61
2021/09/30 16:44:22;;;;;;;;;0.75;0.75;;;;;;;;2773469;51;8763;-62
2021/09/30 16:46:50;;;;;;;;;1.00;1.00;;;;;;;;2773301;51;9433;-61
2021/09/30 16:49:15;;;;;;;;;0.40;0.40;;;;;;;;2773548;51;8769;-62
2021/09/30 16:51:41;;;;;;;;;2.00;0.00;;;;;;;;2773309;51;8755;-59
2021/09/30 16:54:07;;;;;;;;;1.00;1.00;;;;;;;;2773708;51;8750;-59
2021/09/30 16:56:33;;;;;;;;;1.00;1.00;;;;;;;;2773199;51;8810;-59
2021/09/30 16:58:58;;;;;;;;;0.25;0.25;;;;;;;;2773335;51;8797;-61
2021/09/30 17:01:24;;;;;;;;;1.25;0.25;;;;;;;;2773263;51;8791;-61
2021/09/30 17:03:50;;;;;;;;;2.00;1.00;;;;;;;;2772834;51;9447;-59
2021/09/30 17:06:16;;;;;;;;;0.00;0.00;;;;;;;;2773920;51;8771;-59
2021/09/30 17:08:42;;;;;;;;;1.40;0.60;;;;;;;;2772442;51;11544;-60
2021/09/30 17:11:11;;;;;;;;;2.00;0.50;;;;;;;;2767620;51;8821;-61
2021/09/30 17:13:38;;;;;;;;;0.00;0.00;;;;;;;;2767584;51;11510;-61
2021/09/30 17:16:03;;;;;;;;;1.20;1.00;;;;;;;;2767203;51;8816;-62
2021/09/30 17:18:29;;;;;;;;;1.75;0.50;;;;;;;;2767376;51;8778;-59
2021/09/30 17:20:56;;;;;;;;;2.00;2.00;;;;;;;;2767187;51;8777;-60
2021/09/30 17:23:22;;;;;;;;;1.40;1.40;;;;;;;;2766784;51;8784;-61
2021/09/30 17:25:48;;;;;;;;;1.00;1.00;;;;;;;;2768087;51;9465;-61
2021/09/30 17:28:14;;;;;;;;;1.00;1.00;;;;;;;;2773200;51;8763;-59
2021/09/30 17:30:40;;;;;;;;;2.20;1.20;;;;;;;;2773096;51;8915;-58
2021/09/30 17:33:06;;;;;;;;;0.75;0.75;;;;;;;;2773446;51;8782;-58
2021/09/30 17:35:31;;;;;;;;;3.00;2.00;;;;;;;;2773379;51;8803;-58
2021/09/30 17:37:57;;;;;;;;;0.75;0.75;;;;;;;;2773080;51;8778;-58
2021/09/30 17:40:23;;;;;;;;;2.50;1.50;;;;;;;;2773123;51;8802;-59
2021/09/30 17:42:48;;;;;;;;;3.00;1.00;;;;;;;;2773013;51;8822;-62
2021/09/30 17:45:14;;;;;;;;;3.33;1.00;;;;;;;;2773014;51;11376;-58
2021/09/30 17:47:40;;;;;;;;;0.00;0.00;;;;;;;;2773341;51;8778;-60
2021/09/30 17:50:07;;;;;;;;;1.00;1.00;;;;;;;;2773289;51;8767;-61
2021/09/30 17:52:33;;;;;;;;;0.40;0.40;;;;;;;;2772567;51;8863;-59
2021/09/30 17:54:59;;;;;;;;;0.80;0.40;;;;;;;;2773046;51;9508;-61
2021/09/30 17:57:25;;;;;;;;;1.00;1.00;;;;;;;;2773025;51;8779;-58